createdAt,value
2023-05-19T00:02:09.522Z,12.76
2023-05-19T00:04:40.802Z,12.73
2023-05-19T00:07:12.378Z,12.80
2023-05-19T00:09:41.060Z,12.90
2023-05-19T00:12:11.145Z,12.98
2023-05-19T00:14:39.750Z,12.96
2023-05-19T00:17:11.134Z,12.89
2023-05-19T00:19:39.472Z,12.94
2023-05-19T00:22:07.770Z,12.94
2023-05-19T00:24:35.961Z,12.96
2023-05-19T00:27:04.435Z,12.95
2023-05-19T00:29:32.485Z,12.93
2023-05-19T00:32:00.622Z,12.81
2023-05-19T00:34:30.353Z,12.79
2023-05-19T00:36:58.582Z,12.79
2023-05-19T00:39:27.013Z,12.89
2023-05-19T00:41:55.398Z,12.99
2023-05-19T00:44:23.561Z,13.03
2023-05-19T00:46:51.919Z,13.02
2023-05-19T00:49:20.216Z,12.90
2023-05-19T00:51:50.648Z,12.91
2023-05-19T00:54:21.719Z,12.94
2023-05-19T00:56:50.668Z,12.98
2023-05-19T00:59:19.518Z,13.06
2023-05-19T01:01:49.150Z,13.06
2023-05-19T01:04:18.074Z,13.09
2023-05-19T01:06:46.396Z,13.05
2023-05-19T01:09:16.393Z,12.97
2023-05-19T01:11:44.665Z,13.03
2023-05-19T01:14:13.071Z,13.07
2023-05-19T01:16:48.773Z,13.10
2023-05-19T01:19:39.483Z,13.07
2023-05-19T01:22:23.230Z,13.06
2023-05-19T01:25:20.260Z,13.07
2023-05-19T01:28:18.964Z,12.98
2023-05-19T01:30:53.668Z,12.98
2023-05-19T01:33:24.710Z,12.99
2023-05-19T01:35:56.666Z,12.99
2023-05-19T01:38:27.619Z,12.92
2023-05-19T01:40:58.777Z,12.89
2023-05-19T01:43:28.696Z,12.89
2023-05-19T01:45:59.481Z,12.86
2023-05-19T01:48:30.117Z,12.79
2023-05-19T01:50:59.236Z,12.85
2023-05-19T01:53:27.989Z,12.88
2023-05-19T01:55:57.983Z,12.88
2023-05-19T01:58:37.889Z,12.95
2023-05-19T02:01:22.973Z,12.96
2023-05-19T02:04:14.448Z,12.94
2023-05-19T02:06:51.077Z,12.93
2023-05-19T02:09:27.337Z,13.01
2023-05-19T02:12:02.693Z,13.01
2023-05-19T02:14:35.033Z,13.02
2023-05-19T02:17:06.205Z,12.98
2023-05-19T02:19:40.738Z,12.94
2023-05-19T02:22:09.672Z,12.98
2023-05-19T02:24:38.088Z,12.99
2023-05-19T02:27:07.512Z,13.00
2023-05-19T02:29:35.735Z,12.94
2023-05-19T02:32:07.341Z,12.91
2023-05-19T02:34:35.804Z,12.89
2023-05-19T02:37:07.712Z,12.95
2023-05-19T02:39:35.946Z,12.92
2023-05-19T02:42:04.218Z,12.94
2023-05-19T02:44:32.532Z,12.93
2023-05-19T02:47:01.164Z,12.92
2023-05-19T02:49:35.838Z,12.90
2023-05-19T02:52:04.374Z,12.95
2023-05-19T02:54:32.630Z,12.97
2023-05-19T02:57:01.155Z,12.92
2023-05-19T02:59:29.536Z,13.00
2023-05-19T03:02:00.568Z,13.00
2023-05-19T03:04:30.381Z,12.91
2023-05-19T03:06:59.018Z,12.83
2023-05-19T03:09:27.256Z,12.90
2023-05-19T03:11:55.839Z,12.89
2023-05-19T03:14:25.235Z,12.81
2023-05-19T03:16:53.707Z,12.77
2023-05-19T03:19:22.206Z,12.84
2023-05-19T03:21:52.616Z,12.82
2023-05-19T03:24:20.978Z,12.76
2023-05-19T03:26:49.399Z,12.67
2023-05-19T03:29:17.616Z,12.68
2023-05-19T03:31:46.774Z,12.66
2023-05-19T03:34:16.960Z,12.65
2023-05-19T03:36:45.356Z,12.65
2023-05-19T03:39:18.445Z,12.60
2023-05-19T03:41:49.842Z,12.63
2023-05-19T03:44:18.111Z,12.69
2023-05-19T03:46:46.444Z,12.76
2023-05-19T03:49:20.741Z,12.78
2023-05-19T03:52:07.801Z,12.74
2023-05-19T03:54:49.757Z,12.69
2023-05-19T03:57:18.019Z,12.63
2023-05-19T03:59:46.762Z,12.65
2023-05-19T04:02:16.469Z,12.66
2023-05-19T04:04:45.061Z,12.66
2023-05-19T04:07:13.353Z,12.65
2023-05-19T04:09:43.779Z,12.65
2023-05-19T04:12:13.621Z,12.68
2023-05-19T04:14:41.921Z,12.70
2023-05-19T04:17:12.049Z,12.66
2023-05-19T04:19:40.410Z,12.68
2023-05-19T04:22:08.614Z,12.73
2023-05-19T04:24:36.950Z,12.79
2023-05-19T04:27:05.552Z,12.75
2023-05-19T04:29:35.699Z,12.73
2023-05-19T04:32:07.045Z,12.78
2023-05-19T04:34:36.133Z,12.78
2023-05-19T04:37:07.139Z,12.81
2023-05-19T04:39:38.804Z,12.94
2023-05-19T04:42:09.077Z,12.94
2023-05-19T04:44:40.323Z,12.99
2023-05-19T04:47:09.195Z,13.03
2023-05-19T04:49:39.717Z,13.08
2023-05-19T04:52:10.888Z,13.09
2023-05-19T04:54:41.779Z,13.14
2023-05-19T04:57:13.509Z,13.26
2023-05-19T04:59:44.011Z,13.30
2023-05-19T05:02:12.482Z,13.25
2023-05-19T05:04:44.019Z,13.30
2023-05-19T05:07:12.331Z,13.40
2023-05-19T05:09:41.416Z,13.42
2023-05-19T05:12:11.156Z,13.49
2023-05-19T05:14:41.716Z,13.57
2023-05-19T05:17:14.616Z,13.66
2023-05-19T05:19:45.439Z,13.82
2023-05-19T05:22:14.706Z,13.92
2023-05-19T05:24:44.511Z,13.98
2023-05-19T05:27:13.601Z,14.08
2023-05-19T05:29:42.022Z,14.08
2023-05-19T05:32:12.723Z,14.03
2023-05-19T05:34:41.991Z,14.02
2023-05-19T05:37:10.258Z,13.94
2023-05-19T05:39:38.869Z,14.06
2023-05-19T05:42:09.139Z,14.11
2023-05-19T05:44:37.438Z,14.21
2023-05-19T05:47:07.815Z,14.30
2023-05-19T05:49:39.224Z,14.34
2023-05-19T05:52:09.317Z,14.36
2023-05-19T05:54:44.590Z,14.28
2023-05-19T05:57:14.549Z,14.40
2023-05-19T05:59:45.756Z,14.47
2023-05-19T06:02:14.290Z,14.50
2023-05-19T06:04:44.001Z,14.63
2023-05-19T06:07:12.179Z,14.85
2023-05-19T06:09:41.057Z,14.87
2023-05-19T06:12:11.389Z,14.89
2023-05-19T06:14:44.387Z,15.08
2023-05-19T06:17:21.444Z,15.32
2023-05-19T06:19:52.151Z,15.54
2023-05-19T06:22:20.375Z,15.72
2023-05-19T06:24:49.586Z,15.84
2023-05-19T06:27:17.855Z,15.95
2023-05-19T06:29:47.584Z,16.11
2023-05-19T06:32:15.918Z,16.13
2023-05-19T06:34:44.478Z,16.24
2023-05-19T06:37:17.253Z,16.25
2023-05-19T06:39:45.814Z,16.24
2023-05-19T06:42:14.028Z,16.30
2023-05-19T06:45:00.214Z,16.28
2023-05-19T06:47:29.174Z,16.42
2023-05-19T06:49:57.976Z,16.48
2023-05-19T06:52:30.949Z,16.57
2023-05-19T06:54:59.451Z,16.69
2023-05-19T06:57:27.742Z,16.65
2023-05-19T06:59:56.788Z,16.92
2023-05-19T07:02:25.608Z,17.19
2023-05-19T07:04:54.732Z,17.45
2023-05-19T07:07:24.015Z,17.43
2023-05-19T07:09:54.659Z,17.28
2023-05-19T07:12:23.056Z,17.52
2023-05-19T07:14:51.653Z,17.78
2023-05-19T07:17:20.724Z,18.00
2023-05-19T07:19:49.678Z,18.32
2023-05-19T07:22:18.130Z,18.39
2023-05-19T07:24:46.511Z,18.63
2023-05-19T07:27:16.730Z,18.81
2023-05-19T07:29:44.927Z,18.81
2023-05-19T07:32:13.896Z,18.92
2023-05-19T07:34:42.100Z,18.94
2023-05-19T07:37:10.373Z,19.04
2023-05-19T07:39:38.640Z,19.18
2023-05-19T07:42:07.092Z,19.05
2023-05-19T07:44:36.882Z,18.74
2023-05-19T07:47:05.294Z,18.53
2023-05-19T07:49:33.520Z,18.18
2023-05-19T07:52:01.985Z,18.24
2023-05-19T07:54:30.346Z,18.18
2023-05-19T07:56:58.625Z,18.18
2023-05-19T07:59:26.904Z,18.38
2023-05-19T08:01:56.756Z,18.70
2023-05-19T08:04:25.008Z,18.81
2023-05-19T08:06:53.301Z,18.74
2023-05-19T08:09:21.704Z,18.63
2023-05-19T08:11:50.194Z,18.57
2023-05-19T08:14:18.503Z,18.63
2023-05-19T08:16:47.034Z,18.33
2023-05-19T08:19:17.088Z,18.10
2023-05-19T08:21:45.551Z,17.90
2023-05-19T08:24:14.091Z,17.88
2023-05-19T08:26:42.154Z,17.86
2023-05-19T08:29:10.402Z,17.89
2023-05-19T08:31:39.033Z,17.87
2023-05-19T08:34:07.264Z,17.94
2023-05-19T08:36:37.418Z,17.99
2023-05-19T08:39:06.641Z,18.03
2023-05-19T08:41:34.730Z,18.04
2023-05-19T08:44:03.088Z,17.80
2023-05-19T08:46:31.599Z,17.70
2023-05-19T08:49:11.396Z,17.62
2023-05-19T08:51:51.880Z,18.00
2023-05-19T08:54:20.945Z,18.37
2023-05-19T08:56:49.921Z,18.54
2023-05-19T08:59:19.696Z,18.62
2023-05-19T09:01:50.120Z,18.60
2023-05-19T09:04:19.225Z,18.57
2023-05-19T09:06:50.330Z,18.37
2023-05-19T09:09:18.644Z,18.00
2023-05-19T09:11:47.771Z,17.68
2023-05-19T09:14:16.048Z,17.58
2023-05-19T09:16:49.820Z,17.52
2023-05-19T09:19:18.605Z,17.42
2023-05-19T09:21:48.490Z,17.48
2023-05-19T09:24:17.162Z,17.45
2023-05-19T09:26:46.845Z,17.37
2023-05-19T09:29:16.653Z,17.30
2023-05-19T09:31:51.975Z,17.25
2023-05-19T09:34:21.160Z,17.28
2023-05-19T09:36:51.824Z,17.28
2023-05-19T09:39:21.835Z,17.28
2023-05-19T09:41:52.840Z,17.05
2023-05-19T09:44:28.875Z,16.91
2023-05-19T09:46:58.541Z,16.89
2023-05-19T09:49:29.567Z,16.98
2023-05-19T09:52:00.739Z,17.13
2023-05-19T09:54:29.955Z,17.31
2023-05-19T09:57:00.459Z,17.41
2023-05-19T09:59:32.864Z,17.11
2023-05-19T10:02:03.156Z,16.73
2023-05-19T10:04:32.759Z,16.68
2023-05-19T10:07:06.598Z,16.76
2023-05-19T10:09:37.420Z,16.85
2023-05-19T10:12:08.195Z,16.85
2023-05-19T10:14:38.040Z,17.03
2023-05-19T10:17:09.326Z,17.23
2023-05-19T10:19:39.905Z,17.36
2023-05-19T10:22:10.050Z,17.38
2023-05-19T10:24:38.615Z,17.21
2023-05-19T10:27:12.630Z,17.16
2023-05-19T10:29:47.337Z,17.10
2023-05-19T10:32:21.039Z,17.09
2023-05-19T10:35:13.321Z,17.01
2023-05-19T10:37:51.783Z,16.83
2023-05-19T10:40:27.764Z,16.68
2023-05-19T10:43:14.237Z,16.58
2023-05-19T10:45:50.110Z,16.59
2023-05-19T10:48:21.751Z,16.82
2023-05-19T10:50:54.201Z,17.02
2023-05-19T10:53:24.123Z,17.11
2023-05-19T10:55:56.290Z,17.17
2023-05-19T10:58:39.795Z,17.04
2023-05-19T11:01:14.823Z,17.10
2023-05-19T11:03:48.299Z,17.39
2023-05-19T11:06:32.009Z,17.69
2023-05-19T11:09:05.928Z,17.76
2023-05-19T11:11:47.369Z,17.91
2023-05-19T11:14:18.958Z,18.19
2023-05-19T11:16:52.558Z,18.37
2023-05-19T11:19:28.746Z,18.31
2023-05-19T11:21:59.215Z,18.01
2023-05-19T11:24:40.174Z,17.94
2023-05-19T11:27:22.196Z,18.11
2023-05-19T11:29:51.292Z,18.31
2023-05-19T11:32:21.984Z,18.60
2023-05-19T11:34:54.105Z,18.65
2023-05-19T11:37:25.399Z,18.59
2023-05-19T11:39:55.847Z,18.49
2023-05-19T11:42:25.896Z,18.29
2023-05-19T11:44:57.925Z,18.04
2023-05-19T11:47:26.615Z,17.85
2023-05-19T11:49:56.655Z,17.61
2023-05-19T11:52:27.708Z,17.45
2023-05-19T11:55:01.731Z,17.37
2023-05-19T11:57:31.103Z,17.40
2023-05-19T12:00:04.588Z,17.41
2023-05-19T12:02:34.305Z,17.38
2023-05-19T12:05:02.677Z,17.40
2023-05-19T12:07:31.258Z,17.53
2023-05-19T12:10:01.360Z,17.58
2023-05-19T12:12:32.366Z,17.59
2023-05-19T12:15:05.990Z,17.63
2023-05-19T12:17:34.774Z,17.66
2023-05-19T12:20:05.123Z,17.69
2023-05-19T12:22:33.516Z,17.66
2023-05-19T12:25:05.474Z,17.60
2023-05-19T12:27:38.427Z,17.52
2023-05-19T12:30:08.470Z,17.47
2023-05-19T12:32:37.488Z,17.40
2023-05-19T12:35:07.767Z,17.45
2023-05-19T12:37:37.960Z,17.51
2023-05-19T12:40:10.259Z,17.63
2023-05-19T12:42:38.954Z,17.65
2023-05-19T12:45:08.542Z,17.72
2023-05-19T12:47:38.233Z,17.87
2023-05-19T12:50:09.345Z,17.99
2023-05-19T12:52:44.177Z,18.12
2023-05-19T12:55:14.676Z,18.11
2023-05-19T12:57:47.967Z,18.05
2023-05-19T13:00:20.846Z,18.02
2023-05-19T13:03:01.978Z,17.97
2023-05-19T13:05:33.708Z,17.91
2023-05-19T13:08:04.052Z,17.89
2023-05-19T13:10:35.459Z,17.87
2023-05-19T13:13:22.412Z,17.86
2023-05-19T13:16:10.666Z,17.83
2023-05-19T13:18:57.266Z,17.84
2023-05-19T13:21:25.860Z,17.92
2023-05-19T13:23:54.078Z,18.03
2023-05-19T13:26:23.876Z,18.03
2023-05-19T13:28:52.115Z,18.03
2023-05-19T13:31:20.459Z,18.07
2023-05-19T13:33:49.682Z,18.03
2023-05-19T13:36:17.944Z,18.08
2023-05-19T13:38:46.209Z,18.19
2023-05-19T13:41:16.022Z,18.24
2023-05-19T13:43:45.855Z,18.31
2023-05-19T13:46:14.193Z,18.33
2023-05-19T13:48:42.746Z,18.35
2023-05-19T13:51:12.272Z,18.44
2023-05-19T13:53:41.341Z,18.61
2023-05-19T13:56:10.039Z,18.65
2023-05-19T13:58:38.560Z,18.69
2023-05-19T14:01:07.984Z,18.73
2023-05-19T14:03:37.195Z,18.75
2023-05-19T14:06:06.040Z,18.82
2023-05-19T14:08:34.731Z,18.93
2023-05-19T14:11:03.190Z,19.11
2023-05-19T14:13:34.448Z,19.22
2023-05-19T14:16:05.185Z,19.23
2023-05-19T14:18:34.757Z,19.31
2023-05-19T14:21:03.934Z,19.35
2023-05-19T14:23:33.344Z,19.39
2023-05-19T14:26:02.528Z,19.32
2023-05-19T14:28:31.043Z,19.33
2023-05-19T14:30:59.696Z,19.23
2023-05-19T14:33:28.278Z,19.09
2023-05-19T14:36:00.180Z,19.05
2023-05-19T14:38:29.448Z,18.87
2023-05-19T14:40:58.765Z,18.82
2023-05-19T14:43:27.626Z,18.68
2023-05-19T14:45:56.573Z,18.64
2023-05-19T14:48:24.908Z,18.76
2023-05-19T14:50:54.802Z,18.80
2023-05-19T14:53:24.510Z,18.46
2023-05-19T14:55:53.047Z,18.37
2023-05-19T14:58:28.976Z,18.36
2023-05-19T15:00:59.508Z,18.18
2023-05-19T15:03:28.171Z,18.27
2023-05-19T15:05:56.486Z,18.35
2023-05-19T15:08:26.303Z,18.39
2023-05-19T15:10:54.742Z,18.43
2023-05-19T15:13:23.087Z,18.40
2023-05-19T15:16:08.273Z,18.42
2023-05-19T15:18:43.553Z,18.35
2023-05-19T15:21:13.114Z,18.24
2023-05-19T15:23:42.947Z,18.19
2023-05-19T15:26:11.288Z,18.12
2023-05-19T15:28:39.324Z,18.15
2023-05-19T15:31:07.838Z,18.03
2023-05-19T15:33:36.864Z,18.01
2023-05-19T15:36:05.642Z,18.10
2023-05-19T15:38:37.190Z,18.18
2023-05-19T15:41:09.813Z,18.23
2023-05-19T15:43:38.754Z,18.33
2023-05-19T15:46:07.181Z,18.51
2023-05-19T15:48:35.872Z,18.58
2023-05-19T15:51:04.498Z,18.65
2023-05-19T15:53:33.440Z,18.68
2023-05-19T15:56:03.319Z,18.70
2023-05-19T15:58:34.319Z,18.74
2023-05-19T16:01:02.948Z,18.70
2023-05-19T16:03:31.493Z,18.63
2023-05-19T16:06:00.757Z,18.65
2023-05-19T16:08:29.138Z,18.71
2023-05-19T16:10:57.489Z,18.76
2023-05-19T16:13:25.777Z,18.79
2023-05-19T16:15:56.088Z,18.89
2023-05-19T16:18:26.195Z,18.90
2023-05-19T16:20:54.512Z,18.93
2023-05-19T16:23:22.541Z,19.02
2023-05-19T16:25:50.765Z,19.08
2023-05-19T16:28:19.518Z,19.19
2023-05-19T16:30:47.964Z,19.23
2023-05-19T16:33:17.557Z,19.23
2023-05-19T16:35:45.967Z,19.28
2023-05-19T16:38:14.358Z,19.29
2023-05-19T16:40:42.881Z,19.31
2023-05-19T16:43:36.033Z,19.33
2023-05-19T16:46:05.428Z,19.37
2023-05-19T16:48:35.354Z,19.46
2023-05-19T16:51:06.978Z,19.47
2023-05-19T16:53:35.741Z,19.48
2023-05-19T16:56:04.108Z,19.48
2023-05-19T16:58:32.329Z,19.51
2023-05-19T17:01:00.672Z,19.56
2023-05-19T17:03:31.115Z,19.54
2023-05-19T17:06:01.575Z,19.40
2023-05-19T17:08:29.829Z,19.38
2023-05-19T17:10:58.153Z,19.38
2023-05-19T17:13:28.598Z,19.32
2023-05-19T17:15:56.741Z,19.26
2023-05-19T17:18:25.001Z,19.24
2023-05-19T17:20:54.519Z,19.25
2023-05-19T17:23:24.502Z,19.20
2023-05-19T17:25:55.974Z,19.21
2023-05-19T17:28:25.986Z,19.22
2023-05-19T17:30:54.355Z,19.21
2023-05-19T17:33:23.065Z,19.23
2023-05-19T17:35:51.645Z,19.24
2023-05-19T17:38:22.784Z,19.23
2023-05-19T17:40:58.644Z,19.09
2023-05-19T17:43:27.063Z,19.11
2023-05-19T17:45:55.768Z,19.08
2023-05-19T17:48:24.019Z,19.09
2023-05-19T17:50:52.283Z,19.01
2023-05-19T17:53:21.412Z,18.97
2023-05-19T17:55:54.218Z,18.92
2023-05-19T17:58:23.359Z,18.89
2023-05-19T18:00:52.603Z,18.86
2023-05-19T18:03:21.691Z,18.88
2023-05-19T18:05:51.157Z,18.88
2023-05-19T18:08:20.067Z,18.85
2023-05-19T18:10:49.405Z,18.86
2023-05-19T18:13:19.327Z,18.85
2023-05-19T18:15:47.532Z,18.80
2023-05-19T18:18:17.167Z,18.78
2023-05-19T18:20:45.697Z,18.76
2023-05-19T18:23:14.080Z,18.74
2023-05-19T18:25:42.650Z,18.71
2023-05-19T18:28:11.553Z,18.69
2023-05-19T18:30:41.479Z,18.67
2023-05-19T18:33:09.981Z,18.67
2023-05-19T18:35:38.524Z,18.66
2023-05-19T18:38:06.827Z,18.66
2023-05-19T18:40:37.474Z,18.63
2023-05-19T18:43:05.737Z,18.62
2023-05-19T18:45:37.662Z,18.55
2023-05-19T18:48:08.787Z,18.55
2023-05-19T18:50:37.660Z,18.51
2023-05-19T18:53:06.237Z,18.51
2023-05-19T18:55:36.450Z,18.49
2023-05-19T18:58:06.270Z,18.49
2023-05-19T19:00:37.396Z,18.47
2023-05-19T19:03:07.683Z,18.46
2023-05-19T19:05:36.349Z,18.43
2023-05-19T19:08:05.689Z,18.43
2023-05-19T19:10:39.271Z,18.39
2023-05-19T19:13:08.501Z,18.38
2023-05-19T19:15:39.713Z,18.39
2023-05-19T19:18:09.521Z,18.37
2023-05-19T19:20:37.848Z,18.35
2023-05-19T19:23:06.778Z,18.34
2023-05-19T19:25:35.318Z,18.31
2023-05-19T19:28:03.812Z,18.31
2023-05-19T19:30:33.695Z,18.28
2023-05-19T19:33:03.100Z,18.28
2023-05-19T19:35:35.200Z,18.30
2023-05-19T19:38:06.463Z,18.31
2023-05-19T19:40:35.104Z,18.30
2023-05-19T19:43:04.069Z,18.26
2023-05-19T19:45:34.852Z,18.24
2023-05-19T19:48:09.149Z,18.22
2023-05-19T19:50:41.425Z,18.20
2023-05-19T19:53:11.034Z,18.17
2023-05-19T19:55:39.912Z,18.15
2023-05-19T19:58:09.143Z,18.09
2023-05-19T20:00:37.701Z,18.06
2023-05-19T20:03:06.364Z,18.05
2023-05-19T20:05:35.220Z,18.06
2023-05-19T20:08:08.074Z,18.04
2023-05-19T20:10:37.801Z,18.00
2023-05-19T20:13:06.082Z,18.00
2023-05-19T20:15:35.504Z,18.00
2023-05-19T20:18:04.443Z,17.98
2023-05-19T20:20:33.477Z,18.01
2023-05-19T20:23:02.260Z,17.98
2023-05-19T20:25:32.975Z,17.94
2023-05-19T20:28:02.228Z,17.93
2023-05-19T20:30:30.910Z,17.92
2023-05-19T20:32:59.617Z,17.93
2023-05-19T20:35:28.165Z,17.92
2023-05-19T20:37:56.156Z,17.94
2023-05-19T20:40:24.852Z,17.92
2023-05-19T20:42:55.110Z,17.93
2023-05-19T20:45:23.601Z,17.93
2023-05-19T20:47:54.408Z,17.92
2023-05-19T20:50:22.592Z,17.87
2023-05-19T20:52:51.109Z,17.88
2023-05-19T20:55:19.457Z,17.96
2023-05-19T20:57:47.636Z,17.93
2023-05-19T21:00:18.224Z,17.90
2023-05-19T21:02:46.205Z,17.88
2023-05-19T21:05:14.541Z,17.88
2023-05-19T21:07:42.822Z,17.87
2023-05-19T21:10:13.753Z,17.86
2023-05-19T21:12:41.725Z,17.83
2023-05-19T21:15:10.878Z,17.82
2023-05-19T21:17:40.522Z,17.80
2023-05-19T21:20:10.150Z,17.80
2023-05-19T21:22:38.445Z,17.82
2023-05-19T21:25:07.781Z,17.80
2023-05-19T21:27:36.365Z,17.83
2023-05-19T21:30:04.833Z,17.87
2023-05-19T21:32:33.290Z,17.89
2023-05-19T21:35:03.447Z,17.92
2023-05-19T21:37:31.737Z,17.92
2023-05-19T21:40:00.160Z,17.93
2023-05-19T21:42:28.728Z,17.92
2023-05-19T21:44:57.075Z,17.92
2023-05-19T21:47:25.345Z,17.98
2023-05-19T21:49:53.645Z,18.03
2023-05-19T21:52:23.363Z,18.00
2023-05-19T21:54:52.004Z,18.02
2023-05-19T21:57:20.005Z,18.00
2023-05-19T21:59:48.432Z,18.00
2023-05-19T22:02:17.024Z,17.96
2023-05-19T22:04:45.167Z,17.97
2023-05-19T22:07:13.681Z,17.96
2023-05-19T22:09:43.804Z,17.98
2023-05-19T22:12:11.996Z,17.85
2023-05-19T22:14:40.553Z,17.88
2023-05-19T22:17:09.274Z,17.86
2023-05-19T22:19:37.574Z,17.89
2023-05-19T22:22:13.001Z,17.88
2023-05-19T22:24:44.333Z,17.84
2023-05-19T22:27:12.817Z,17.82
2023-05-19T22:29:41.526Z,17.77
2023-05-19T22:32:12.152Z,17.72
2023-05-19T22:34:40.546Z,17.74
2023-05-19T22:37:08.800Z,17.73
2023-05-19T22:39:37.009Z,17.68
2023-05-19T22:42:07.439Z,17.66
2023-05-19T22:44:35.914Z,17.69
2023-05-19T22:47:04.453Z,17.69
2023-05-19T22:49:33.449Z,17.68
2023-05-19T22:52:01.942Z,17.65
2023-05-19T22:54:30.228Z,17.65
2023-05-19T22:56:58.437Z,17.67
2023-05-19T22:59:27.730Z,17.69
2023-05-19T23:01:56.041Z,17.66
2023-05-19T23:04:24.499Z,17.59
2023-05-19T23:06:52.944Z,17.54
2023-05-19T23:09:21.901Z,17.46
2023-05-19T23:11:50.152Z,17.39
2023-05-19T23:14:18.703Z,17.35
2023-05-19T23:16:48.685Z,17.33
2023-05-19T23:19:17.118Z,17.31
2023-05-19T23:21:45.909Z,17.30
2023-05-19T23:24:14.157Z,17.38
2023-05-19T23:26:44.136Z,17.39
2023-05-19T23:29:13.886Z,17.38
2023-05-19T23:31:42.210Z,17.29
2023-05-19T23:34:11.957Z,17.28
2023-05-19T23:36:41.093Z,17.26
2023-05-19T23:39:09.411Z,17.17
2023-05-19T23:41:37.657Z,17.09
2023-05-19T23:44:06.128Z,17.09
2023-05-19T23:46:34.675Z,17.11
2023-05-19T23:49:03.081Z,17.11
2023-05-19T23:51:32.779Z,17.12
2023-05-19T23:54:01.097Z,17.11
2023-05-19T23:56:29.304Z,17.02
2023-05-19T23:58:57.397Z,17.01
